sensor_id;sensor_type;location;lat;lon;timestamp;temperature;humidity
7694;DHT22;3889;48.162;11.510;2023-02-28T00:01:26;-1.70;99.90
7694;DHT22;3889;48.162;11.510;2023-02-28T00:03:55;-1.70;99.90
7694;DHT22;3889;48.162;11.510;2023-02-28T00:06:23;-1.70;99.90
7694;DHT22;3889;48.162;11.510;2023-02-28T00:08:53;-1.70;99.90
7694;DHT22;3889;48.162;11.510;2023-02-28T00:11:21;-1.70;99.90
7694;DHT22;3889;48.162;11.510;2023-02-28T00:13:49;-1.60;99.90
7694;DHT22;3889;48.162;11.510;2023-02-28T00:16:19;-1.70;99.90
7694;DHT22;3889;48.162;11.510;2023-02-28T00:18:47;-1.80;99.90
7694;DHT22;3889;48.162;11.510;2023-02-28T00:21:15;-1.80;99.90
7694;DHT22;3889;48.162;11.510;2023-02-28T00:23:43;-1.80;99.90
7694;DHT22;3889;48.162;11.510;2023-02-28T00:26:12;-1.80;99.90
7694;DHT22;3889;48.162;11.510;2023-02-28T00:28:40;-1.70;99.90
7694;DHT22;3889;48.162;11.510;2023-02-28T00:31:08;-1.80;99.90
7694;DHT22;3889;48.162;11.510;2023-02-28T00:33:36;-1.70;99.90
7694;DHT22;3889;48.162;11.510;2023-02-28T00:36:05;-1.90;99.90
7694;DHT22;3889;48.162;11.510;2023-02-28T00:38:33;-1.80;99.90
7694;DHT22;3889;48.162;11.510;2023-02-28T00:41:02;-1.80;99.90
7694;DHT22;3889;48.162;11.510;2023-02-28T00:43:34;-1.80;99.90
7694;DHT22;3889;48.162;11.510;2023-02-28T00:46:03;-1.90;99.90
7694;DHT22;3889;48.162;11.510;2023-02-28T00:48:31;-1.90;99.90
7694;DHT22;3889;48.162;11.510;2023-02-28T00:50:59;-1.90;99.90
7694;DHT22;3889;48.162;11.510;2023-02-28T00:53:27;-1.90;99.90
7694;DHT22;3889;48.162;11.510;2023-02-28T00:55:55;-1.90;99.90
7694;DHT22;3889;48.162;11.510;2023-02-28T00:58:23;-1.90;99.90
7694;DHT22;3889;48.162;11.510;2023-02-28T01:00:52;-1.90;99.90
7694;DHT22;3889;48.162;11.510;2023-02-28T01:03:21;-1.90;99.90
7694;DHT22;3889;48.162;11.510;2023-02-28T01:05:49;-2.00;99.90
7694;DHT22;3889;48.162;11.510;2023-02-28T01:08:17;-2.00;99.90
7694;DHT22;3889;48.162;11.510;2023-02-28T01:10:45;-1.90;99.90
7694;DHT22;3889;48.162;11.510;2023-02-28T01:13:13;-1.90;99.90
7694;DHT22;3889;48.162;11.510;2023-02-28T01:15:43;-2.00;99.90
7694;DHT22;3889;48.162;11.510;2023-02-28T01:18:14;-2.00;99.90
7694;DHT22;3889;48.162;11.510;2023-02-28T01:20:42;-2.00;99.90
7694;DHT22;3889;48.162;11.510;2023-02-28T01:23:10;-2.00;99.90
7694;DHT22;3889;48.162;11.510;2023-02-28T01:25:38;-2.00;99.90
7694;DHT22;3889;48.162;11.510;2023-02-28T01:28:06;-2.00;99.90
7694;DHT22;3889;48.162;11.510;2023-02-28T01:30:34;-2.00;99.90
7694;DHT22;3889;48.162;11.510;2023-02-28T01:33:02;-2.00;99.90
7694;DHT22;3889;48.162;11.510;2023-02-28T01:35:33;-2.00;99.90
7694;DHT22;3889;48.162;11.510;2023-02-28T01:38:01;-2.00;99.90
7694;DHT22;3889;48.162;11.510;2023-02-28T01:40:46;-2.10;99.90
7694;DHT22;3889;48.162;11.510;2023-02-28T01:43:20;-2.20;99.90
7694;DHT22;3889;48.162;11.510;2023-02-28T01:45:49;-2.20;99.90
7694;DHT22;3889;48.162;11.510;2023-02-28T01:48:18;-2.10;99.90
7694;DHT22;3889;48.162;11.510;2023-02-28T01:50:48;-2.20;99.90
7694;DHT22;3889;48.162;11.510;2023-02-28T01:53:18;-2.20;99.90
7694;DHT22;3889;48.162;11.510;2023-02-28T01:55:49;-2.20;99.90
7694;DHT22;3889;48.162;11.510;2023-02-28T01:58:18;-2.30;99.90
7694;DHT22;3889;48.162;11.510;2023-02-28T02:00:46;-2.30;99.90
7694;DHT22;3889;48.162;11.510;2023-02-28T02:03:16;-2.20;99.90
7694;DHT22;3889;48.162;11.510;2023-02-28T02:05:47;-2.30;99.90
7694;DHT22;3889;48.162;11.510;2023-02-28T02:08:18;-2.30;99.90
7694;DHT22;3889;48.162;11.510;2023-02-28T02:10:48;-2.30;99.90
7694;DHT22;3889;48.162;11.510;2023-02-28T02:13:36;-2.40;99.90
7694;DHT22;3889;48.162;11.510;2023-02-28T02:16:13;-2.30;99.90
7694;DHT22;3889;48.162;11.510;2023-02-28T02:18:44;-2.30;99.90
7694;DHT22;3889;48.162;11.510;2023-02-28T02:21:47;-2.40;99.90
7694;DHT22;3889;48.162;11.510;2023-02-28T02:27:25;-2.40;99.90
7694;DHT22;3889;48.162;11.510;2023-02-28T02:30:17;-2.40;99.90
7694;DHT22;3889;48.162;11.510;2023-02-28T02:33:11;-2.40;99.90
7694;DHT22;3889;48.162;11.510;2023-02-28T02:35:49;-2.40;99.90
7694;DHT22;3889;48.162;11.510;2023-02-28T02:38:30;-2.40;99.90
7694;DHT22;3889;48.162;11.510;2023-02-28T02:41:04;-2.40;99.90
7694;DHT22;3889;48.162;11.510;2023-02-28T02:43:36;-2.40;99.90
7694;DHT22;3889;48.162;11.510;2023-02-28T02:46:12;-2.40;99.90
7694;DHT22;3889;48.162;11.510;2023-02-28T02:48:42;-2.50;99.90
7694;DHT22;3889;48.162;11.510;2023-02-28T02:51:15;-2.40;99.90
7694;DHT22;3889;48.162;11.510;2023-02-28T02:53:47;-2.40;99.90
7694;DHT22;3889;48.162;11.510;2023-02-28T02:56:19;-2.40;99.90
7694;DHT22;3889;48.162;11.510;2023-02-28T02:58:49;-2.40;99.90
7694;DHT22;3889;48.162;11.510;2023-02-28T03:01:21;-2.50;99.90
7694;DHT22;3889;48.162;11.510;2023-02-28T03:03:56;-2.50;99.90
7694;DHT22;3889;48.162;11.510;2023-02-28T03:06:26;-2.50;99.90
7694;DHT22;3889;48.162;11.510;2023-02-28T03:08:54;-2.40;99.90
7694;DHT22;3889;48.162;11.510;2023-02-28T03:11:22;-2.50;99.90
7694;DHT22;3889;48.162;11.510;2023-02-28T03:14:16;-2.50;99.90
7694;DHT22;3889;48.162;11.510;2023-02-28T03:17:31;-2.50;99.90
7694;DHT22;3889;48.162;11.510;2023-02-28T03:20:17;-2.50;99.90
7694;DHT22;3889;48.162;11.510;2023-02-28T03:23:00;-2.50;99.90
7694;DHT22;3889;48.162;11.510;2023-02-28T03:25:33;-2.60;99.90
7694;DHT22;3889;48.162;11.510;2023-02-28T03:28:09;-2.50;99.90
7694;DHT22;3889;48.162;11.510;2023-02-28T03:30:43;-2.60;99.90
7694;DHT22;3889;48.162;11.510;2023-02-28T03:33:15;-2.70;99.90
7694;DHT22;3889;48.162;11.510;2023-02-28T03:35:48;-2.60;99.90
7694;DHT22;3889;48.162;11.510;2023-02-28T03:38:24;-2.60;99.90
7694;DHT22;3889;48.162;11.510;2023-02-28T03:41:00;-2.50;99.90
7694;DHT22;3889;48.162;11.510;2023-02-28T03:43:31;-2.50;99.90
7694;DHT22;3889;48.162;11.510;2023-02-28T03:46:04;-2.40;99.90
7694;DHT22;3889;48.162;11.510;2023-02-28T03:48:37;-2.40;99.90
7694;DHT22;3889;48.162;11.510;2023-02-28T03:51:08;-2.50;99.90
7694;DHT22;3889;48.162;11.510;2023-02-28T03:53:40;-2.40;99.90
7694;DHT22;3889;48.162;11.510;2023-02-28T03:56:14;-2.40;99.90
7694;DHT22;3889;48.162;11.510;2023-02-28T03:58:49;-2.40;99.90
7694;DHT22;3889;48.162;11.510;2023-02-28T04:01:21;-2.40;99.90
7694;DHT22;3889;48.162;11.510;2023-02-28T04:03:50;-2.50;99.90
7694;DHT22;3889;48.162;11.510;2023-02-28T04:06:20;-2.60;99.90
7694;DHT22;3889;48.162;11.510;2023-02-28T04:08:50;-2.50;99.90
7694;DHT22;3889;48.162;11.510;2023-02-28T04:11:23;-2.50;99.90
7694;DHT22;3889;48.162;11.510;2023-02-28T04:13:54;-2.40;99.90
7694;DHT22;3889;48.162;11.510;2023-02-28T04:16:22;-2.40;99.90
7694;DHT22;3889;48.162;11.510;2023-02-28T04:19:01;-2.50;99.90
7694;DHT22;3889;48.162;11.510;2023-02-28T04:21:30;-2.40;99.90
7694;DHT22;3889;48.162;11.510;2023-02-28T04:24:00;-2.40;99.90
7694;DHT22;3889;48.162;11.510;2023-02-28T04:26:29;-2.30;99.90
7694;DHT22;3889;48.162;11.510;2023-02-28T04:28:57;-2.30;99.90
7694;DHT22;3889;48.162;11.510;2023-02-28T04:31:25;-2.30;99.90
7694;DHT22;3889;48.162;11.510;2023-02-28T04:33:54;-2.30;99.90
7694;DHT22;3889;48.162;11.510;2023-02-28T04:36:22;-2.40;99.90
7694;DHT22;3889;48.162;11.510;2023-02-28T04:38:50;-2.30;99.90
7694;DHT22;3889;48.162;11.510;2023-02-28T04:41:20;-2.30;99.90
7694;DHT22;3889;48.162;11.510;2023-02-28T04:43:50;-2.20;99.90
7694;DHT22;3889;48.162;11.510;2023-02-28T04:46:18;-2.10;99.90
7694;DHT22;3889;48.162;11.510;2023-02-28T04:48:46;-2.10;99.90
7694;DHT22;3889;48.162;11.510;2023-02-28T04:51:16;-2.10;99.90
7694;DHT22;3889;48.162;11.510;2023-02-28T04:53:44;-2.10;99.90
7694;DHT22;3889;48.162;11.510;2023-02-28T04:56:13;-2.20;99.90
7694;DHT22;3889;48.162;11.510;2023-02-28T04:58:44;-2.20;99.90
7694;DHT22;3889;48.162;11.510;2023-02-28T05:01:21;-2.10;99.90
7694;DHT22;3889;48.162;11.510;2023-02-28T05:03:50;-2.00;99.90
7694;DHT22;3889;48.162;11.510;2023-02-28T05:06:19;-2.10;99.90
7694;DHT22;3889;48.162;11.510;2023-02-28T05:08:47;-2.00;99.90
7694;DHT22;3889;48.162;11.510;2023-02-28T05:11:18;-1.90;99.90
7694;DHT22;3889;48.162;11.510;2023-02-28T05:13:48;-1.80;99.90
7694;DHT22;3889;48.162;11.510;2023-02-28T05:16:17;-1.80;99.90
7694;DHT22;3889;48.162;11.510;2023-02-28T05:18:45;-1.90;99.90
7694;DHT22;3889;48.162;11.510;2023-02-28T05:21:27;-1.80;99.90
7694;DHT22;3889;48.162;11.510;2023-02-28T05:23:56;-1.90;99.90
7694;DHT22;3889;48.162;11.510;2023-02-28T05:26:26;-1.90;99.90
7694;DHT22;3889;48.162;11.510;2023-02-28T05:28:56;-1.80;99.90
7694;DHT22;3889;48.162;11.510;2023-02-28T05:31:23;-1.90;99.90
7694;DHT22;3889;48.162;11.510;2023-02-28T05:33:52;-1.90;99.90
7694;DHT22;3889;48.162;11.510;2023-02-28T05:36:20;-1.80;99.90
7694;DHT22;3889;48.162;11.510;2023-02-28T05:38:48;-1.80;99.90
7694;DHT22;3889;48.162;11.510;2023-02-28T05:41:16;-1.70;99.90
7694;DHT22;3889;48.162;11.510;2023-02-28T05:43:46;-1.70;99.90
7694;DHT22;3889;48.162;11.510;2023-02-28T05:46:16;-1.80;99.90
7694;DHT22;3889;48.162;11.510;2023-02-28T05:48:47;-1.70;99.90
7694;DHT22;3889;48.162;11.510;2023-02-28T05:51:16;-1.70;99.90
7694;DHT22;3889;48.162;11.510;2023-02-28T05:53:44;-1.70;99.90
7694;DHT22;3889;48.162;11.510;2023-02-28T05:56:12;-1.70;99.90
7694;DHT22;3889;48.162;11.510;2023-02-28T05:58:40;-1.80;99.90
7694;DHT22;3889;48.162;11.510;2023-02-28T06:01:24;-1.70;99.90
7694;DHT22;3889;48.162;11.510;2023-02-28T06:03:58;-1.60;99.90
7694;DHT22;3889;48.162;11.510;2023-02-28T06:06:26;-1.70;99.90
7694;DHT22;3889;48.162;11.510;2023-02-28T06:08:53;-1.60;99.90
7694;DHT22;3889;48.162;11.510;2023-02-28T06:11:21;-1.60;99.90
7694;DHT22;3889;48.162;11.510;2023-02-28T06:13:54;-1.70;99.90
7694;DHT22;3889;48.162;11.510;2023-02-28T06:16:25;-1.70;99.90
7694;DHT22;3889;48.162;11.510;2023-02-28T06:18:53;-1.60;99.90
7694;DHT22;3889;48.162;11.510;2023-02-28T06:21:22;-1.60;99.90
7694;DHT22;3889;48.162;11.510;2023-02-28T06:23:50;-1.60;99.90
7694;DHT22;3889;48.162;11.510;2023-02-28T06:26:18;-1.50;99.90
7694;DHT22;3889;48.162;11.510;2023-02-28T06:28:46;-1.60;99.90
7694;DHT22;3889;48.162;11.510;2023-02-28T06:31:15;-1.60;99.90
7694;DHT22;3889;48.162;11.510;2023-02-28T06:33:46;-1.60;99.90
7694;DHT22;3889;48.162;11.510;2023-02-28T06:36:15;-1.60;99.90
7694;DHT22;3889;48.162;11.510;2023-02-28T06:38:44;-1.60;99.90
7694;DHT22;3889;48.162;11.510;2023-02-28T06:41:12;-1.60;99.90
7694;DHT22;3889;48.162;11.510;2023-02-28T06:43:41;-1.60;99.90
7694;DHT22;3889;48.162;11.510;2023-02-28T06:46:13;-1.60;99.90
7694;DHT22;3889;48.162;11.510;2023-02-28T06:48:42;-1.60;99.90
7694;DHT22;3889;48.162;11.510;2023-02-28T06:51:13;-1.50;99.90
7694;DHT22;3889;48.162;11.510;2023-02-28T06:53:41;-1.60;99.90
7694;DHT22;3889;48.162;11.510;2023-02-28T06:56:11;-1.50;99.90
7694;DHT22;3889;48.162;11.510;2023-02-28T06:58:39;-1.50;99.90
7694;DHT22;3889;48.162;11.510;2023-02-28T07:01:08;-1.50;99.90
7694;DHT22;3889;48.162;11.510;2023-02-28T07:03:36;-1.40;99.90
7694;DHT22;3889;48.162;11.510;2023-02-28T07:06:05;-1.50;99.90
7694;DHT22;3889;48.162;11.510;2023-02-28T07:08:35;-1.50;99.90
7694;DHT22;3889;48.162;11.510;2023-02-28T07:11:03;-1.50;99.90
7694;DHT22;3889;48.162;11.510;2023-02-28T07:13:31;-1.40;99.90
7694;DHT22;3889;48.162;11.510;2023-02-28T07:16:02;-1.30;99.90
7694;DHT22;3889;48.162;11.510;2023-02-28T07:18:31;-1.30;99.90
7694;DHT22;3889;48.162;11.510;2023-02-28T07:21:02;-1.30;99.90
7694;DHT22;3889;48.162;11.510;2023-02-28T07:23:30;-1.30;99.90
7694;DHT22;3889;48.162;11.510;2023-02-28T07:25:59;-1.40;99.90
7694;DHT22;3889;48.162;11.510;2023-02-28T07:28:27;-1.30;99.90
7694;DHT22;3889;48.162;11.510;2023-02-28T07:30:55;-1.40;99.90
7694;DHT22;3889;48.162;11.510;2023-02-28T07:33:23;-1.30;99.90
7694;DHT22;3889;48.162;11.510;2023-02-28T07:35:51;-1.40;99.90
7694;DHT22;3889;48.162;11.510;2023-02-28T07:38:19;-1.40;99.90
7694;DHT22;3889;48.162;11.510;2023-02-28T07:40:47;-1.40;99.90
7694;DHT22;3889;48.162;11.510;2023-02-28T07:43:16;-1.40;99.90
7694;DHT22;3889;48.162;11.510;2023-02-28T07:45:43;-1.20;99.90
7694;DHT22;3889;48.162;11.510;2023-02-28T07:48:11;-1.20;99.90
7694;DHT22;3889;48.162;11.510;2023-02-28T07:50:39;-1.10;99.90
7694;DHT22;3889;48.162;11.510;2023-02-28T07:53:07;-1.00;99.90
7694;DHT22;3889;48.162;11.510;2023-02-28T07:55:35;-0.90;99.90
7694;DHT22;3889;48.162;11.510;2023-02-28T07:58:03;-0.90;99.90
7694;DHT22;3889;48.162;11.510;2023-02-28T08:00:32;-0.90;99.90
7694;DHT22;3889;48.162;11.510;2023-02-28T08:03:00;-0.80;99.90
7694;DHT22;3889;48.162;11.510;2023-02-28T08:05:28;-0.80;99.90
7694;DHT22;3889;48.162;11.510;2023-02-28T08:07:56;-0.70;99.90
7694;DHT22;3889;48.162;11.510;2023-02-28T08:10:24;-0.70;99.90
7694;DHT22;3889;48.162;11.510;2023-02-28T08:12:52;-0.70;99.90
7694;DHT22;3889;48.162;11.510;2023-02-28T08:15:20;-0.70;99.90
7694;DHT22;3889;48.162;11.510;2023-02-28T08:17:49;-0.70;99.90
7694;DHT22;3889;48.162;11.510;2023-02-28T08:20:17;-0.80;99.90
7694;DHT22;3889;48.162;11.510;2023-02-28T08:22:45;-0.90;99.90
7694;DHT22;3889;48.162;11.510;2023-02-28T08:25:12;-1.00;99.90
7694;DHT22;3889;48.162;11.510;2023-02-28T08:27:41;-1.00;99.90
7694;DHT22;3889;48.162;11.510;2023-02-28T08:30:11;-0.90;99.90
7694;DHT22;3889;48.162;11.510;2023-02-28T08:32:39;-1.10;99.90
7694;DHT22;3889;48.162;11.510;2023-02-28T08:35:09;-1.10;99.90
7694;DHT22;3889;48.162;11.510;2023-02-28T08:37:37;-1.10;99.90
7694;DHT22;3889;48.162;11.510;2023-02-28T08:40:06;-1.10;99.90
7694;DHT22;3889;48.162;11.510;2023-02-28T08:42:34;-0.90;99.90
7694;DHT22;3889;48.162;11.510;2023-02-28T08:45:03;-0.80;99.90
7694;DHT22;3889;48.162;11.510;2023-02-28T08:47:31;-0.90;99.90
7694;DHT22;3889;48.162;11.510;2023-02-28T08:49:59;-1.10;99.90
7694;DHT22;3889;48.162;11.510;2023-02-28T08:52:28;-1.00;99.90
7694;DHT22;3889;48.162;11.510;2023-02-28T08:54:56;-0.90;99.90
7694;DHT22;3889;48.162;11.510;2023-02-28T08:57:24;-0.70;99.90
7694;DHT22;3889;48.162;11.510;2023-02-28T08:59:54;-0.50;99.90
7694;DHT22;3889;48.162;11.510;2023-02-28T09:02:22;-0.50;99.90
7694;DHT22;3889;48.162;11.510;2023-02-28T09:04:50;-0.40;99.90
7694;DHT22;3889;48.162;11.510;2023-02-28T09:07:18;-0.40;99.90
7694;DHT22;3889;48.162;11.510;2023-02-28T09:09:47;-0.20;99.90
7694;DHT22;3889;48.162;11.510;2023-02-28T09:12:21;-0.20;99.90
7694;DHT22;3889;48.162;11.510;2023-02-28T09:14:50;-0.10;99.90
7694;DHT22;3889;48.162;11.510;2023-02-28T09:17:18;-0.10;99.90
7694;DHT22;3889;48.162;11.510;2023-02-28T09:19:47;0.10;99.90
7694;DHT22;3889;48.162;11.510;2023-02-28T09:22:15;0.00;99.90
7694;DHT22;3889;48.162;11.510;2023-02-28T09:24:43;-0.10;99.90
7694;DHT22;3889;48.162;11.510;2023-02-28T09:27:13;0.00;99.90
7694;DHT22;3889;48.162;11.510;2023-02-28T09:29:41;-0.10;99.90
7694;DHT22;3889;48.162;11.510;2023-02-28T09:32:08;-0.10;99.90
7694;DHT22;3889;48.162;11.510;2023-02-28T09:34:37;-0.10;99.90
7694;DHT22;3889;48.162;11.510;2023-02-28T09:37:05;0.00;99.90
7694;DHT22;3889;48.162;11.510;2023-02-28T09:39:33;0.20;99.90
7694;DHT22;3889;48.162;11.510;2023-02-28T09:42:02;0.20;99.90
7694;DHT22;3889;48.162;11.510;2023-02-28T09:44:36;0.30;99.90
7694;DHT22;3889;48.162;11.510;2023-02-28T09:47:10;0.10;99.90
7694;DHT22;3889;48.162;11.510;2023-02-28T09:49:42;0.10;99.90
7694;DHT22;3889;48.162;11.510;2023-02-28T09:52:12;0.40;99.90
7694;DHT22;3889;48.162;11.510;2023-02-28T09:54:41;0.50;99.90
7694;DHT22;3889;48.162;11.510;2023-02-28T09:57:15;0.40;99.90
7694;DHT22;3889;48.162;11.510;2023-02-28T10:00:05;0.20;99.90
7694;DHT22;3889;48.162;11.510;2023-02-28T10:02:51;0.50;99.90
7694;DHT22;3889;48.162;11.510;2023-02-28T10:05:23;0.50;99.90
7694;DHT22;3889;48.162;11.510;2023-02-28T10:08:02;0.40;99.90
7694;DHT22;3889;48.162;11.510;2023-02-28T10:10:36;0.30;99.90
7694;DHT22;3889;48.162;11.510;2023-02-28T10:13:13;0.20;99.90
7694;DHT22;3889;48.162;11.510;2023-02-28T10:15:45;0.30;99.90
7694;DHT22;3889;48.162;11.510;2023-02-28T10:18:19;0.40;99.90
7694;DHT22;3889;48.162;11.510;2023-02-28T10:20:49;0.80;99.90
7694;DHT22;3889;48.162;11.510;2023-02-28T10:23:21;0.80;99.90
7694;DHT22;3889;48.162;11.510;2023-02-28T10:25:55;1.00;99.90
7694;DHT22;3889;48.162;11.510;2023-02-28T10:28:25;1.00;99.90
7694;DHT22;3889;48.162;11.510;2023-02-28T10:30:55;0.90;99.90
7694;DHT22;3889;48.162;11.510;2023-02-28T10:33:24;0.60;99.90
7694;DHT22;3889;48.162;11.510;2023-02-28T10:35:53;0.80;99.90
7694;DHT22;3889;48.162;11.510;2023-02-28T10:38:22;0.60;99.90
7694;DHT22;3889;48.162;11.510;2023-02-28T10:40:51;0.80;99.90
7694;DHT22;3889;48.162;11.510;2023-02-28T10:43:21;0.80;99.90
7694;DHT22;3889;48.162;11.510;2023-02-28T10:46:02;0.80;99.90
7694;DHT22;3889;48.162;11.510;2023-02-28T10:48:37;0.60;99.90
7694;DHT22;3889;48.162;11.510;2023-02-28T10:51:07;0.60;99.90
7694;DHT22;3889;48.162;11.510;2023-02-28T10:53:39;0.50;99.90
7694;DHT22;3889;48.162;11.510;2023-02-28T10:56:27;0.60;99.90
7694;DHT22;3889;48.162;11.510;2023-02-28T10:58:58;0.80;99.90
7694;DHT22;3889;48.162;11.510;2023-02-28T11:01:36;0.80;99.90
7694;DHT22;3889;48.162;11.510;2023-02-28T11:04:17;0.90;99.90
7694;DHT22;3889;48.162;11.510;2023-02-28T11:06:46;1.30;99.90
7694;DHT22;3889;48.162;11.510;2023-02-28T11:09:20;1.30;99.90
7694;DHT22;3889;48.162;11.510;2023-02-28T11:11:50;1.60;99.90
7694;DHT22;3889;48.162;11.510;2023-02-28T11:14:21;1.70;99.90
7694;DHT22;3889;48.162;11.510;2023-02-28T11:16:51;1.50;99.90
7694;DHT22;3889;48.162;11.510;2023-02-28T11:19:23;1.70;99.90
7694;DHT22;3889;48.162;11.510;2023-02-28T11:21:55;1.70;99.90
7694;DHT22;3889;48.162;11.510;2023-02-28T11:24:27;1.50;99.90
7694;DHT22;3889;48.162;11.510;2023-02-28T11:26:56;1.60;99.90
7694;DHT22;3889;48.162;11.510;2023-02-28T11:29:25;1.50;99.90
7694;DHT22;3889;48.162;11.510;2023-02-28T11:32:11;1.40;99.90
7694;DHT22;3889;48.162;11.510;2023-02-28T11:34:41;1.60;99.90
7694;DHT22;3889;48.162;11.510;2023-02-28T11:37:14;1.50;99.90
7694;DHT22;3889;48.162;11.510;2023-02-28T11:39:43;1.50;99.90
7694;DHT22;3889;48.162;11.510;2023-02-28T11:45:12;1.60;99.90
7694;DHT22;3889;48.162;11.510;2023-02-28T11:47:48;1.90;99.90
7694;DHT22;3889;48.162;11.510;2023-02-28T11:50:27;1.90;99.90
7694;DHT22;3889;48.162;11.510;2023-02-28T11:53:04;2.00;99.90
7694;DHT22;3889;48.162;11.510;2023-02-28T11:55:36;2.10;99.90
7694;DHT22;3889;48.162;11.510;2023-02-28T11:58:16;2.40;99.90
7694;DHT22;3889;48.162;11.510;2023-02-28T12:01:02;2.60;99.90
7694;DHT22;3889;48.162;11.510;2023-02-28T12:03:43;2.80;99.90
7694;DHT22;3889;48.162;11.510;2023-02-28T12:06:23;2.50;99.90
7694;DHT22;3889;48.162;11.510;2023-02-28T12:09:12;2.40;99.90
7694;DHT22;3889;48.162;11.510;2023-02-28T12:11:50;2.40;99.90
7694;DHT22;3889;48.162;11.510;2023-02-28T12:14:29;2.60;99.90
7694;DHT22;3889;48.162;11.510;2023-02-28T12:17:07;2.90;99.90
7694;DHT22;3889;48.162;11.510;2023-02-28T12:19:45;3.00;99.90
7694;DHT22;3889;48.162;11.510;2023-02-28T12:22:26;3.10;99.90
7694;DHT22;3889;48.162;11.510;2023-02-28T12:27:52;3.40;99.90
7694;DHT22;3889;48.162;11.510;2023-02-28T12:30:23;3.10;99.90
7694;DHT22;3889;48.162;11.510;2023-02-28T12:32:55;2.90;99.90
7694;DHT22;3889;48.162;11.510;2023-02-28T12:35:32;3.20;99.90
7694;DHT22;3889;48.162;11.510;2023-02-28T12:38:04;3.60;99.90
7694;DHT22;3889;48.162;11.510;2023-02-28T12:40:43;3.60;99.90
7694;DHT22;3889;48.162;11.510;2023-02-28T12:43:13;3.60;99.90
7694;DHT22;3889;48.162;11.510;2023-02-28T12:45:46;3.70;99.90
7694;DHT22;3889;48.162;11.510;2023-02-28T12:48:20;3.80;99.90
7694;DHT22;3889;48.162;11.510;2023-02-28T12:50:51;3.70;99.90
7694;DHT22;3889;48.162;11.510;2023-02-28T12:53:25;3.70;99.90
7694;DHT22;3889;48.162;11.510;2023-02-28T12:56:05;3.80;99.90
7694;DHT22;3889;48.162;11.510;2023-02-28T12:58:38;3.80;99.90
7694;DHT22;3889;48.162;11.510;2023-02-28T13:01:29;3.80;99.90
7694;DHT22;3889;48.162;11.510;2023-02-28T13:04:32;3.70;99.90
7694;DHT22;3889;48.162;11.510;2023-02-28T13:07:25;3.40;99.90
7694;DHT22;3889;48.162;11.510;2023-02-28T13:10:03;3.40;99.90
7694;DHT22;3889;48.162;11.510;2023-02-28T13:12:33;3.30;99.90
7694;DHT22;3889;48.162;11.510;2023-02-28T13:15:05;3.50;99.90
7694;DHT22;3889;48.162;11.510;2023-02-28T13:17:39;3.40;99.90
7694;DHT22;3889;48.162;11.510;2023-02-28T13:20:17;3.40;99.90
7694;DHT22;3889;48.162;11.510;2023-02-28T13:22:48;3.40;99.90
7694;DHT22;3889;48.162;11.510;2023-02-28T13:38:34;3.40;99.90
7694;DHT22;3889;48.162;11.510;2023-02-28T13:41:43;3.60;99.90
7694;DHT22;3889;48.162;11.510;2023-02-28T13:44:13;3.40;99.90
7694;DHT22;3889;48.162;11.510;2023-02-28T13:49:46;3.40;99.90
7694;DHT22;3889;48.162;11.510;2023-02-28T13:52:18;3.40;99.90
7694;DHT22;3889;48.162;11.510;2023-02-28T13:55:24;3.50;99.90
7694;DHT22;3889;48.162;11.510;2023-02-28T13:58:10;3.50;99.90
7694;DHT22;3889;48.162;11.510;2023-02-28T14:01:02;3.40;99.90
7694;DHT22;3889;48.162;11.510;2023-02-28T14:03:54;3.50;99.90
7694;DHT22;3889;48.162;11.510;2023-02-28T14:06:27;3.40;99.90
7694;DHT22;3889;48.162;11.510;2023-02-28T14:08:59;3.40;99.90
7694;DHT22;3889;48.162;11.510;2023-02-28T14:11:31;3.40;99.90
7694;DHT22;3889;48.162;11.510;2023-02-28T14:14:00;3.40;99.90
7694;DHT22;3889;48.162;11.510;2023-02-28T14:16:38;3.40;99.90
7694;DHT22;3889;48.162;11.510;2023-02-28T14:19:12;3.30;99.90
7694;DHT22;3889;48.162;11.510;2023-02-28T14:21:50;3.30;99.90
7694;DHT22;3889;48.162;11.510;2023-02-28T14:24:48;3.50;99.90
7694;DHT22;3889;48.162;11.510;2023-02-28T14:27:31;3.70;99.90
7694;DHT22;3889;48.162;11.510;2023-02-28T14:30:25;3.90;99.90
7694;DHT22;3889;48.162;11.510;2023-02-28T14:33:01;4.00;99.90
7694;DHT22;3889;48.162;11.510;2023-02-28T14:35:51;4.00;99.90
7694;DHT22;3889;48.162;11.510;2023-02-28T14:38:25;4.10;99.90
7694;DHT22;3889;48.162;11.510;2023-02-28T14:40:57;4.00;99.90
7694;DHT22;3889;48.162;11.510;2023-02-28T14:43:28;3.80;99.90
7694;DHT22;3889;48.162;11.510;2023-02-28T14:45:58;3.80;99.90
7694;DHT22;3889;48.162;11.510;2023-02-28T14:48:27;3.80;99.90
7694;DHT22;3889;48.162;11.510;2023-02-28T14:50:57;3.90;99.90
7694;DHT22;3889;48.162;11.510;2023-02-28T14:53:28;3.80;99.90
7694;DHT22;3889;48.162;11.510;2023-02-28T14:55:56;3.70;99.90
7694;DHT22;3889;48.162;11.510;2023-02-28T14:58:27;3.80;99.90
7694;DHT22;3889;48.162;11.510;2023-02-28T15:00:56;3.90;99.90
7694;DHT22;3889;48.162;11.510;2023-02-28T15:03:31;3.90;99.90
7694;DHT22;3889;48.162;11.510;2023-02-28T15:06:00;4.00;99.90
7694;DHT22;3889;48.162;11.510;2023-02-28T15:08:29;4.10;99.90
7694;DHT22;3889;48.162;11.510;2023-02-28T15:11:03;3.90;99.90
7694;DHT22;3889;48.162;11.510;2023-02-28T15:13:38;3.90;99.90
7694;DHT22;3889;48.162;11.510;2023-02-28T15:16:11;4.00;99.90
7694;DHT22;3889;48.162;11.510;2023-02-28T15:18:44;4.10;99.90
7694;DHT22;3889;48.162;11.510;2023-02-28T15:21:16;4.70;99.90
7694;DHT22;3889;48.162;11.510;2023-02-28T15:23:48;4.70;99.90
7694;DHT22;3889;48.162;11.510;2023-02-28T15:26:20;4.50;99.90
7694;DHT22;3889;48.162;11.510;2023-02-28T15:28:51;4.40;99.90
7694;DHT22;3889;48.162;11.510;2023-02-28T15:31:23;4.50;99.90
7694;DHT22;3889;48.162;11.510;2023-02-28T15:33:55;4.60;99.90
7694;DHT22;3889;48.162;11.510;2023-02-28T15:36:26;4.40;99.90
7694;DHT22;3889;48.162;11.510;2023-02-28T15:38:56;4.90;99.90
7694;DHT22;3889;48.162;11.510;2023-02-28T15:41:39;5.00;99.90
7694;DHT22;3889;48.162;11.510;2023-02-28T15:44:17;5.10;99.90
7694;DHT22;3889;48.162;11.510;2023-02-28T15:46:54;4.70;99.90
7694;DHT22;3889;48.162;11.510;2023-02-28T15:49:23;4.70;99.90
7694;DHT22;3889;48.162;11.510;2023-02-28T15:51:52;4.20;99.90
7694;DHT22;3889;48.162;11.510;2023-02-28T15:54:23;4.70;99.90
7694;DHT22;3889;48.162;11.510;2023-02-28T15:56:53;4.60;99.90
7694;DHT22;3889;48.162;11.510;2023-02-28T15:59:26;4.20;99.90
7694;DHT22;3889;48.162;11.510;2023-02-28T16:02:14;3.90;99.90
7694;DHT22;3889;48.162;11.510;2023-02-28T16:05:02;3.60;99.90
7694;DHT22;3889;48.162;11.510;2023-02-28T16:07:30;3.50;99.90
7694;DHT22;3889;48.162;11.510;2023-02-28T16:09:58;3.30;99.90
7694;DHT22;3889;48.162;11.510;2023-02-28T16:12:28;3.20;99.90
7694;DHT22;3889;48.162;11.510;2023-02-28T16:14:59;3.20;99.90
7694;DHT22;3889;48.162;11.510;2023-02-28T16:17:32;3.00;99.90
7694;DHT22;3889;48.162;11.510;2023-02-28T16:20:04;3.00;99.90
7694;DHT22;3889;48.162;11.510;2023-02-28T16:22:33;2.90;99.90
7694;DHT22;3889;48.162;11.510;2023-02-28T16:25:01;2.90;99.90
7694;DHT22;3889;48.162;11.510;2023-02-28T16:27:32;2.90;99.90
7694;DHT22;3889;48.162;11.510;2023-02-28T16:30:02;2.80;99.90
7694;DHT22;3889;48.162;11.510;2023-02-28T16:32:31;2.80;99.90
7694;DHT22;3889;48.162;11.510;2023-02-28T16:34:59;2.80;99.90
7694;DHT22;3889;48.162;11.510;2023-02-28T16:37:27;2.70;99.90
7694;DHT22;3889;48.162;11.510;2023-02-28T16:39:55;2.70;99.90
7694;DHT22;3889;48.162;11.510;2023-02-28T16:42:24;2.60;99.90
7694;DHT22;3889;48.162;11.510;2023-02-28T16:44:53;2.60;99.90
7694;DHT22;3889;48.162;11.510;2023-02-28T16:47:22;2.50;99.90
7694;DHT22;3889;48.162;11.510;2023-02-28T16:49:50;2.50;99.90